Time;durP1;ratioP1;P1;durP2;ratioP2;P2;SDS_P1;SDS_P2;PMS_P1;PMS_P2;Temp;Humidity;BMP_temperature;BMP_pressure;BME280_temperature;BME280_humidity;BME280_pressure;Samples;Min_cycle;Max_cycle;Signal;HPM_P1;HPM_P2
2022/06/02 00:00:47;;;;;;;8.50;7.60;;;10.00;99.90;;;;;;4965812;28;20613;-51
2022/06/02 00:03:22;;;;;;;9.23;7.40;;;9.90;99.90;;;;;;4956834;28;20931;-50
2022/06/02 00:06:09;;;;;;;11.30;8.80;;;9.90;99.90;;;;;;4968465;28;20440;-50
2022/06/02 00:09:02;;;;;;;11.10;8.77;;;9.80;99.90;;;;;;4965251;28;20472;-50
2022/06/02 00:11:38;;;;;;;10.83;8.63;;;9.70;99.90;;;;;;4962693;28;20511;-51
2022/06/02 00:14:36;;;;;;;13.43;8.63;;;9.70;1.00;;;;;;4966329;28;20436;-49
2022/06/02 00:17:16;;;;;;;9.70;7.63;;;9.60;99.90;;;;;;4917884;28;20488;-52
2022/06/02 00:20:05;;;;;;;13.93;8.90;;;9.60;99.90;;;;;;4969952;28;20854;-51
2022/06/02 00:22:42;;;;;;;10.47;8.10;;;9.60;99.90;;;;;;4966201;28;20493;-52
2022/06/02 00:25:31;;;;;;;12.17;8.27;;;9.50;99.90;;;;;;4967373;28;20448;-50
2022/06/02 00:28:03;;;;;;;11.60;8.83;;;9.40;99.90;;;;;;4969300;28;20926;-50
2022/06/02 00:30:48;;;;;;;10.90;8.40;;;9.40;99.90;;;;;;4966643;28;20460;-52
2022/06/02 00:33:28;;;;;;;12.03;9.47;;;9.40;99.90;;;;;;4963701;28;20448;-52
2022/06/02 00:36:01;;;;;;;11.67;8.97;;;9.40;99.90;;;;;;4962702;28;20434;-51
2022/06/02 00:38:28;;;;;;;11.60;8.60;;;9.30;1.00;;;;;;4968322;28;20464;-49
2022/06/02 00:41:03;;;;;;;10.53;8.60;;;9.30;1.00;;;;;;4968313;28;20551;-52
2022/06/02 00:43:35;;;;;;;12.50;9.40;;;9.30;1.00;;;;;;4965923;28;20447;-51
2022/06/02 00:46:10;;;;;;;11.67;9.23;;;9.20;99.90;;;;;;4966643;28;20470;-52
2022/06/02 00:48:59;;;;;;;14.57;9.23;;;9.20;1.00;;;;;;4967821;28;21029;-52
2022/06/02 00:51:40;;;;;;;12.10;10.07;;;9.20;1.00;;;;;;4960846;28;20574;-52
2022/06/02 00:57:35;;;;;;;13.30;9.23;;;9.10;99.90;;;;;;4959059;28;20468;-51
2022/06/02 01:00:36;;;;;;;13.20;9.43;;;9.10;99.90;;;;;;4963897;28;20436;-52
2022/06/02 01:03:01;;;;;;;15.60;10.10;;;9.10;99.90;;;;;;4957070;28;20455;-52
2022/06/02 01:05:49;;;;;;;13.47;10.17;;;9.00;1.00;;;;;;4959247;28;20440;-52
2022/06/02 01:08:51;;;;;;;14.93;10.50;;;9.10;99.90;;;;;;4968253;28;20193;-52
2022/06/02 01:11:31;;;;;;;17.13;10.20;;;9.10;99.90;;;;;;4967500;28;20436;-48
2022/06/02 01:14:12;;;;;;;17.00;9.77;;;9.00;1.00;;;;;;4967324;28;20428;-51
2022/06/02 01:16:49;;;;;;;12.57;9.80;;;9.00;1.00;;;;;;4960449;28;20444;-52
2022/06/02 01:19:29;;;;;;;16.40;10.67;;;9.00;99.90;;;;;;4964830;28;20443;-53
2022/06/02 01:21:54;;;;;;;14.00;9.67;;;9.00;99.90;;;;;;4967322;28;20436;-52
2022/06/02 01:24:20;;;;;;;12.53;9.83;;;8.90;99.90;;;;;;4965237;28;21012;-51
2022/06/02 01:27:02;;;;;;;14.77;10.03;;;8.90;99.90;;;;;;4967301;28;20197;-52
2022/06/02 01:29:28;;;;;;;11.63;9.70;;;8.80;20.20;;;;;;4965852;28;20189;-52
2022/06/02 01:32:14;;;;;;;16.17;11.00;;;8.80;73.90;;;;;;4968060;28;20448;-52
2022/06/02 01:34:58;;;;;;;15.77;11.17;;;8.80;99.90;;;;;;4968334;28;20192;-52
2022/06/02 01:37:50;;;;;;;16.10;10.47;;;8.80;99.90;;;;;;4966479;28;20483;-51
2022/06/02 01:41:03;;;;;;;18.70;11.00;;;8.80;1.00;;;;;;4960381;28;20448;-52
2022/06/02 01:43:40;;;;;;;14.80;10.43;;;8.80;99.90;;;;;;4967995;28;20446;-46
2022/06/02 01:46:08;;;;;;;15.73;10.73;;;8.80;1.00;;;;;;4963844;28;21096;-47
2022/06/02 01:49:02;;;;;;;12.77;9.70;;;8.80;99.90;;;;;;4971284;28;20455;-47
2022/06/02 01:51:49;;;;;;;14.00;10.23;;;8.70;99.90;;;;;;4965948;28;20526;-47
2022/06/02 01:54:38;;;;;;;17.20;10.40;;;8.70;99.90;;;;;;4969629;28;20467;-47
2022/06/02 01:57:39;;;;;;;15.40;11.17;;;8.70;99.90;;;;;;4964884;28;20468;-47
2022/06/02 02:00:13;;;;;;;18.80;11.37;;;8.60;1.00;;;;;;4953418;28;21091;-47
2022/06/02 02:03:13;;;;;;;12.20;9.97;;;8.70;27.90;;;;;;4970281;28;21326;-46
2022/06/02 02:05:51;;;;;;;15.03;10.70;;;8.60;1.00;;;;;;4956606;28;21316;-46
2022/06/02 02:08:28;;;;;;;16.43;11.20;;;8.70;1.00;;;;;;4968839;28;20781;-46
2022/06/02 02:11:02;;;;;;;18.33;11.40;;;8.70;1.00;;;;;;4970872;28;20509;-47
2022/06/02 02:13:52;;;;;;;14.97;11.27;;;8.60;1.00;;;;;;4968754;28;20859;-46
2022/06/02 02:16:52;;;;;;;13.60;11.00;;;8.60;99.90;;;;;;4969810;28;20910;-47
2022/06/02 02:19:28;;;;;;;17.47;11.37;;;8.60;1.00;;;;;;4965488;28;20444;-46
2022/06/02 02:22:33;;;;;;;15.37;11.40;;;8.60;99.90;;;;;;4972220;28;20436;-46
2022/06/02 02:25:02;;;;;;;17.73;12.20;;;8.70;1.00;;;;;;4970399;28;20464;-46
2022/06/02 02:28:04;;;;;;;14.80;11.47;;;8.70;1.00;;;;;;4966885;28;20505;-46
2022/06/02 02:30:44;;;;;;;20.47;12.40;;;8.70;1.00;;;;;;4968305;28;20433;-47
2022/06/02 02:33:47;;;;;;;13.60;10.93;;;8.80;99.90;;;;;;4967385;28;20440;-47
2022/06/02 02:36:41;;;;;;;16.20;12.03;;;8.70;99.90;;;;;;4964672;28;20462;-47
2022/06/02 02:39:23;;;;;;;17.50;11.80;;;8.70;99.90;;;;;;4968877;28;20444;-46
2022/06/02 02:42:01;;;;;;;14.97;11.37;;;8.80;1.00;;;;;;4969942;28;20428;-48
2022/06/02 02:44:36;;;;;;;16.80;11.80;;;8.80;1.00;;;;;;4965898;28;20837;-46
2022/06/02 02:47:10;;;;;;;21.43;12.73;;;8.70;1.00;;;;;;4964691;28;20527;-46
2022/06/02 02:49:51;;;;;;;15.83;10.90;;;8.80;31.50;;;;;;4968053;28;20440;-47
2022/06/02 02:52:22;;;;;;;16.10;11.53;;;8.80;99.90;;;;;;4966201;28;20469;-47
2022/06/02 02:55:17;;;;;;;18.40;12.80;;;8.80;99.90;;;;;;4968058;28;20444;-46
2022/06/02 02:58:04;;;;;;;21.80;13.27;;;8.70;99.90;;;;;;4965900;28;20479;-47
2022/06/02 03:00:37;;;;;;;18.77;12.13;;;8.70;99.90;;;;;;4969656;28;20475;-46
2022/06/02 03:03:20;;;;;;;20.23;14.03;;;8.60;99.90;;;;;;4967070;28;20447;-46
2022/06/02 03:06:06;;;;;;;15.80;12.10;;;8.60;1.00;;;;;;4970167;28;20443;-47
2022/06/02 03:08:51;;;;;;;15.43;11.07;;;8.60;99.90;;;;;;4967188;28;20498;-47
2022/06/02 03:11:41;;;;;;;16.87;12.90;;;8.60;1.00;;;;;;4968610;28;20433;-47
2022/06/02 03:14:28;;;;;;;15.30;12.00;;;8.60;88.90;;;;;;4967856;28;20958;-47
2022/06/02 03:17:14;;;;;;;24.00;11.90;;;8.60;1.00;;;;;;4966054;28;20545;-46
2022/06/02 03:20:01;;;;;;;14.73;12.30;;;8.60;99.90;;;;;;4968038;28;20870;-47
2022/06/02 03:22:50;;;;;;;18.00;13.30;;;8.60;99.90;;;;;;4960417;28;20926;-47
2022/06/02 03:25:31;;;;;;;19.20;12.90;;;8.60;99.90;;;;;;4962747;28;20468;-46
2022/06/02 03:28:17;;;;;;;22.13;13.80;;;8.60;99.90;;;;;;4968658;28;20436;-46
2022/06/02 03:31:00;;;;;;;19.30;13.23;;;8.60;99.90;;;;;;4966639;28;20446;-46
2022/06/02 03:33:59;;;;;;;24.40;15.10;;;8.60;1.00;;;;;;4967364;28;20503;-46
2022/06/02 03:36:48;;;;;;;18.60;14.17;;;8.60;1.00;;;;;;4967150;28;20447;-46
2022/06/02 03:39:34;;;;;;;25.43;14.83;;;8.60;1.00;;;;;;4961235;28;20548;-47
2022/06/02 03:42:35;;;;;;;22.20;15.13;;;8.60;1.00;;;;;;4965630;28;20436;-46
2022/06/02 03:45:18;;;;;;;23.07;13.87;;;8.70;1.00;;;;;;4967400;28;20448;-47
2022/06/02 03:48:21;;;;;;;19.03;14.30;;;8.60;99.90;;;;;;4966449;28;22022;-46
2022/06/02 03:51:13;;;;;;;25.37;15.40;;;8.60;1.00;;;;;;4965260;28;20479;-47
2022/06/02 03:54:16;;;;;;;22.27;16.47;;;8.60;17.40;;;;;;4961475;28;20458;-47
2022/06/02 03:56:49;;;;;;;28.43;17.27;;;8.60;99.90;;;;;;4967572;28;20462;-48
2022/06/02 03:59:54;;;;;;;27.03;16.83;;;8.70;1.00;;;;;;4965169;28;20445;-47
2022/06/02 04:02:54;;;;;;;29.30;18.13;;;8.70;1.00;;;;;;4963143;28;20954;-47
2022/06/02 04:05:45;;;;;;;26.13;17.10;;;8.90;1.00;;;;;;4958634;28;21320;-47
2022/06/02 04:08:24;;;;;;;26.73;17.00;;;8.90;1.00;;;;;;4965743;28;20498;-46
2022/06/02 04:11:10;;;;;;;26.43;17.83;;;9.00;99.90;;;;;;4962486;28;20428;-46
2022/06/02 04:13:41;;;;;;;27.93;18.07;;;9.00;54.40;;;;;;4969715;28;20440;-47
2022/06/02 04:16:20;;;;;;;26.50;17.37;;;9.20;1.00;;;;;;4960201;28;20942;-47
2022/06/02 04:22:39;;;;;;;27.40;16.97;;;9.40;99.90;;;;;;4966754;28;21001;-46
2022/06/02 04:25:33;;;;;;;21.83;16.00;;;9.50;42.80;;;;;;4940528;28;20467;-47
2022/06/02 04:28:27;;;;;;;25.63;16.70;;;9.50;1.00;;;;;;4968296;28;21020;-46
2022/06/02 04:31:23;;;;;;;28.60;17.20;;;9.50;1.00;;;;;;4963470;28;20436;-47
2022/06/02 04:33:56;;;;;;;26.80;16.60;;;9.60;99.90;;;;;;4966788;28;20437;-47
2022/06/02 04:36:39;;;;;;;22.20;16.00;;;9.70;50.90;;;;;;4963990;28;20457;-51
2022/06/02 04:39:17;;;;;;;26.47;16.30;;;9.70;1.00;;;;;;4960638;28;20451;-51
2022/06/02 04:42:01;;;;;;;24.80;15.90;;;9.80;1.00;;;;;;4965518;28;20809;-51
2022/06/02 04:45:06;;;;;;;34.63;15.90;;;9.80;1.00;;;;;;4960132;28;20440;-51
2022/06/02 04:48:09;;;;;;;23.50;14.40;;;9.90;1.00;;;;;;4965889;28;20463;-50
2022/06/02 04:51:00;;;;;;;25.47;16.37;;;10.00;99.90;;;;;;4964680;28;20887;-50
2022/06/02 04:54:00;;;;;;;29.10;15.90;;;10.00;99.90;;;;;;4964450;28;20523;-51
2022/06/02 04:56:49;;;;;;;29.13;15.73;;;10.10;99.90;;;;;;4939543;28;20459;-50
2022/06/02 04:59:32;;;;;;;31.60;15.97;;;10.10;99.90;;;;;;4967087;28;20445;-49
2022/06/02 05:02:12;;;;;;;27.33;15.00;;;10.20;99.90;;;;;;4967194;28;20917;-49
2022/06/02 05:05:02;;;;;;;20.63;14.97;;;10.20;99.90;;;;;;4963364;28;20447;-50
2022/06/02 05:07:53;;;;;;;20.60;13.53;;;10.30;45.30;;;;;;4965078;28;20810;-51
2022/06/02 05:10:27;;;;;;;18.50;12.80;;;10.30;1.00;;;;;;4961547;28;21411;-50
2022/06/02 05:13:20;;;;;;;21.70;14.00;;;10.30;1.00;;;;;;4963272;28;20436;-49
2022/06/02 05:15:56;;;;;;;22.60;13.00;;;10.40;1.00;;;;;;4966525;28;20519;-49
2022/06/02 05:18:38;;;;;;;16.10;12.67;;;10.40;1.00;;;;;;4970155;28;21205;-47
2022/06/02 05:21:30;;;;;;;17.30;12.00;;;10.40;1.00;;;;;;4967884;28;21099;-49
2022/06/02 05:24:20;;;;;;;15.50;12.07;;;10.40;1.00;;;;;;4961491;28;20424;-48
2022/06/02 05:27:29;;;;;;;26.10;12.17;;;10.40;1.00;;;;;;4966745;28;20956;-51
2022/06/02 05:30:13;;;;;;;15.57;11.90;;;10.50;1.00;;;;;;4966303;28;20432;-50
2022/06/02 05:33:01;;;;;;;16.40;12.97;;;10.60;1.00;;;;;;4967432;28;20480;-49
2022/06/02 05:35:51;;;;;;;17.63;12.77;;;10.80;1.00;;;;;;4966823;28;20427;-50
2022/06/02 05:38:48;;;;;;;16.03;12.20;;;10.80;1.00;;;;;;4969202;28;20468;-49
2022/06/02 05:41:35;;;;;;;13.50;11.00;;;10.90;1.00;;;;;;4968749;28;20456;-45
2022/06/02 05:44:27;;;;;;;18.17;11.73;;;11.00;1.00;;;;;;4967998;28;20948;-45
2022/06/02 05:47:33;;;;;;;15.33;10.77;;;11.20;1.00;;;;;;4969855;28;20432;-47
2022/06/02 05:50:10;;;;;;;16.50;10.70;;;11.30;1.00;;;;;;4968276;28;20447;-45
2022/06/02 05:53:05;;;;;;;15.50;10.70;;;11.30;1.00;;;;;;4966424;28;20490;-46
2022/06/02 05:56:05;;;;;;;13.70;8.90;;;11.30;1.00;;;;;;4967166;28;20941;-46
2022/06/02 05:58:58;;;;;;;11.37;9.47;;;11.30;1.00;;;;;;4964411;28;20502;-45
2022/06/02 06:01:55;;;;;;;11.40;8.57;;;11.40;1.00;;;;;;4989047;28;20452;-45
2022/06/02 06:04:43;;;;;;;12.80;9.97;;;11.40;1.00;;;;;;4962538;28;20413;-45
2022/06/02 06:07:32;;;;;;;12.20;9.70;;;11.50;1.00;;;;;;4960954;28;20420;-45
2022/06/02 06:10:16;;;;;;;11.13;9.67;;;11.50;1.00;;;;;;4965399;28;20444;-45
2022/06/02 06:12:59;;;;;;;14.13;9.87;;;11.70;1.00;;;;;;4965645;28;20431;-45
2022/06/02 06:15:48;;;;;;;17.30;10.57;;;11.60;1.00;;;;;;4971174;28;20502;-45
2022/06/02 06:18:44;;;;;;;10.77;9.10;;;11.70;1.00;;;;;;4965291;28;20477;-45
2022/06/02 06:21:27;;;;;;;14.13;10.10;;;11.80;1.00;;;;;;4968918;28;20943;-45
2022/06/02 06:24:14;;;;;;;13.63;9.00;;;12.00;1.00;;;;;;4972299;28;20413;-45
2022/06/02 06:27:11;;;;;;;12.33;9.17;;;12.00;1.00;;;;;;4966874;28;20535;-45
2022/06/02 06:29:57;;;;;;;15.40;9.30;;;12.20;99.90;;;;;;4965747;28;20424;-45
2022/06/02 06:32:44;;;;;;;12.60;8.10;;;12.60;1.00;;;;;;4968338;28;20914;-45
2022/06/02 06:35:28;;;;;;;10.80;7.47;;;13.20;99.90;;;;;;4970228;28;20441;-45
2022/06/02 06:38:25;;;;;;;16.83;7.20;;;13.40;99.90;;;;;;4971335;28;20478;-45
2022/06/02 06:40:57;;;;;;;9.30;6.40;;;13.20;99.90;;;;;;4970540;28;20412;-45
2022/06/02 06:43:48;;;;;;;8.53;6.77;;;12.90;99.90;;;;;;4971151;28;20860;-45
2022/06/02 06:46:37;;;;;;;6.87;6.17;;;12.90;99.90;;;;;;4967285;28;20460;-45
2022/06/02 06:49:32;;;;;;;10.90;5.93;;;12.90;99.90;;;;;;4962391;28;20476;-47
2022/06/02 06:52:18;;;;;;;8.80;6.13;;;13.00;99.90;;;;;;4966581;28;20508;-44
2022/06/02 06:54:43;;;;;;;8.30;6.50;;;12.90;99.90;;;;;;4971774;28;20435;-45
2022/06/02 06:57:18;;;;;;;9.57;7.00;;;12.90;99.90;;;;;;4967225;28;21055;-44
2022/06/02 06:59:58;;;;;;;8.93;6.67;;;12.80;99.90;;;;;;4966887;28;20207;-46
2022/06/02 07:02:50;;;;;;;10.13;6.77;;;12.80;99.90;;;;;;4966957;28;21002;-46
2022/06/02 07:05:37;;;;;;;10.47;6.40;;;12.70;99.90;;;;;;4962926;28;20487;-47
2022/06/02 07:08:27;;;;;;;7.27;6.40;;;12.60;99.90;;;;;;4969527;28;20797;-46
2022/06/02 07:14:30;;;;;;;8.00;6.60;;;12.60;99.90;;;;;;4945605;28;20440;-46
2022/06/02 07:16:56;;;;;;;11.33;5.67;;;12.60;99.90;;;;;;4963492;28;20428;-46
2022/06/02 07:19:48;;;;;;;8.13;6.00;;;12.70;99.90;;;;;;4966698;28;20480;-46
2022/06/02 07:22:45;;;;;;;8.03;5.90;;;12.60;99.90;;;;;;4965004;28;20190;-46
2022/06/02 07:25:44;;;;;;;14.27;5.63;;;12.60;99.90;;;;;;4959612;28;20488;-46
2022/06/02 07:28:24;;;;;;;9.03;5.57;;;12.60;99.90;;;;;;4954737;28;20914;-45
2022/06/02 07:31:11;;;;;;;7.23;5.93;;;12.50;99.90;;;;;;4970235;28;20535;-46
2022/06/02 07:33:57;;;;;;;8.67;5.83;;;12.50;99.90;;;;;;4969570;28;20435;-48
2022/06/02 07:36:51;;;;;;;9.30;6.07;;;12.60;99.90;;;;;;4965612;28;20421;-47
2022/06/02 07:39:50;;;;;;;7.33;5.40;;;12.50;99.90;;;;;;4965912;28;20445;-48
2022/06/02 07:42:54;;;;;;;6.80;5.43;;;12.50;99.90;;;;;;4959053;28;20433;-48
2022/06/02 07:45:39;;;;;;;8.40;5.33;;;12.40;99.90;;;;;;4959275;28;20519;-49
2022/06/02 07:48:46;;;;;;;6.53;5.80;;;12.50;99.90;;;;;;4964843;28;20575;-48
2022/06/02 07:51:26;;;;;;;8.67;6.37;;;12.60;99.90;;;;;;4911564;29;20498;-48
2022/06/02 07:54:40;;;;;;;9.90;6.67;;;12.60;99.90;;;;;;4912408;29;20467;-48
2022/06/02 07:57:14;;;;;;;6.60;5.10;;;12.50;99.90;;;;;;4956849;28;20839;-49
2022/06/02 07:59:45;;;;;;;12.30;7.27;;;12.40;99.90;;;;;;4957909;28;20440;-48
2022/06/02 08:02:38;;;;;;;9.87;6.00;;;12.40;99.90;;;;;;4966981;28;20425;-48
2022/06/02 08:05:31;;;;;;;11.37;5.10;;;12.30;99.90;;;;;;4961857;28;20448;-49
2022/06/02 08:08:01;;;;;;;11.10;5.80;;;12.30;1.00;;;;;;4968397;28;20495;-48
2022/06/02 08:10:38;;;;;;;9.43;5.97;;;12.30;1.00;;;;;;4968048;28;20472;-48
2022/06/02 08:13:15;;;;;;;8.90;6.10;;;12.30;1.00;;;;;;4965122;28;20436;-49
2022/06/02 08:15:52;;;;;;;13.40;6.47;;;12.30;1.00;;;;;;4966472;28;20447;-48
2022/06/02 08:18:32;;;;;;;10.50;5.57;;;12.30;1.00;;;;;;4964812;28;20503;-49
2022/06/02 08:20:57;;;;;;;7.73;5.77;;;12.40;1.00;;;;;;4964112;28;20918;-49
2022/06/02 08:23:23;;;;;;;9.93;5.20;;;12.70;1.00;;;;;;4958691;28;20488;-48
2022/06/02 08:26:00;;;;;;;8.80;4.80;;;12.90;99.90;;;;;;4965753;28;20271;-46
2022/06/02 08:28:29;;;;;;;9.30;4.60;;;13.20;99.90;;;;;;4961073;28;20185;-46
2022/06/02 08:31:16;;;;;;;8.53;4.30;;;13.30;99.90;;;;;;4959950;28;20436;-46
2022/06/02 08:33:47;;;;;;;8.20;4.23;;;13.30;99.90;;;;;;4962773;28;20439;-47
2022/06/02 08:36:29;;;;;;;6.20;3.90;;;13.50;99.90;;;;;;4962783;28;20465;-47
2022/06/02 08:39:09;;;;;;;9.57;3.77;;;13.80;99.90;;;;;;4958346;28;20550;-46
2022/06/02 08:41:53;;;;;;;5.60;3.70;;;14.20;99.90;;;;;;4963918;28;20822;-47
2022/06/02 08:44:25;;;;;;;8.50;3.97;;;14.50;99.90;;;;;;4964381;28;20780;-47
2022/06/02 08:47:08;;;;;;;6.13;4.00;;;14.50;99.90;;;;;;4960062;28;20527;-47
2022/06/02 08:49:55;;;;;;;8.97;4.13;;;14.40;99.90;;;;;;4963627;28;20441;-47
2022/06/02 08:52:45;;;;;;;5.83;4.03;;;14.50;99.90;;;;;;4962446;28;20434;-47
2022/06/02 08:55:20;;;;;;;7.60;3.50;;;14.70;99.90;;;;;;4961791;28;20416;-46
2022/06/02 08:58:27;;;;;;;6.30;4.00;;;14.80;99.90;;;;;;4963824;28;20481;-45
2022/06/02 09:01:17;;;;;;;7.67;3.50;;;15.10;99.90;;;;;;4957936;28;20503;-44
2022/06/02 09:04:13;;;;;;;7.00;3.50;;;15.40;99.90;;;;;;4960652;28;20413;-45
2022/06/02 09:06:58;;;;;;;7.93;2.50;;;15.30;99.90;;;;;;4960358;28;20868;-45
2022/06/02 09:09:49;;;;;;;3.90;2.70;;;15.30;99.90;;;;;;4963618;28;20431;-47
2022/06/02 09:12:25;;;;;;;6.53;2.70;;;15.10;99.90;;;;;;4958692;28;20424;-47
2022/06/02 09:15:12;;;;;;;3.90;2.57;;;15.10;99.90;;;;;;4959578;28;20423;-46
2022/06/02 09:17:46;;;;;;;5.60;2.70;;;15.00;99.90;;;;;;4962738;28;20476;-47
2022/06/02 09:21:01;;;;;;;10.07;3.20;;;15.10;99.90;;;;;;4960472;28;20943;-46
2022/06/02 09:23:46;;;;;;;5.53;2.50;;;15.00;99.90;;;;;;4924879;29;20841;-45
2022/06/02 09:26:40;;;;;;;5.17;2.67;;;14.80;99.90;;;;;;4963217;28;20442;-47
2022/06/02 09:29:45;;;;;;;5.10;3.07;;;14.70;99.90;;;;;;4957495;28;20583;-47
2022/06/02 09:32:29;;;;;;;7.30;2.93;;;14.50;99.90;;;;;;4953827;28;20532;-46
2022/06/02 09:35:31;;;;;;;3.70;2.80;;;14.30;99.90;;;;;;4959815;28;20787;-46
2022/06/02 09:38:23;;;;;;;10.23;2.90;;;14.10;99.90;;;;;;4965434;28;20498;-46
2022/06/02 09:40:59;;;;;;;5.97;3.43;;;14.10;99.90;;;;;;4964583;28;20923;-46
2022/06/02 09:44:03;;;;;;;5.87;3.13;;;14.10;99.90;;;;;;4961583;28;20476;-46
2022/06/02 09:46:48;;;;;;;5.80;3.07;;;14.20;99.90;;;;;;4961728;28;20432;-47
2022/06/02 09:49:13;;;;;;;12.50;3.63;;;14.30;99.90;;;;;;4963108;28;20793;-49
2022/06/02 09:51:49;;;;;;;5.03;3.30;;;14.50;99.90;;;;;;4962370;28;20476;-47
2022/06/02 09:54:44;;;;;;;4.70;2.90;;;14.60;99.90;;;;;;4957550;28;20640;-49
2022/06/02 10:00:18;;;;;;;6.83;3.60;;;14.70;99.90;;;;;;4968956;28;20523;-46
2022/06/02 10:03:15;;;;;;;5.40;3.17;;;14.70;99.90;;;;;;4967482;28;21066;-47
2022/06/02 10:06:08;;;;;;;4.87;2.93;;;14.50;99.90;;;;;;4960886;28;20432;-46
2022/06/02 10:08:48;;;;;;;8.33;3.67;;;14.30;99.90;;;;;;4964646;28;20479;-46
2022/06/02 10:11:48;;;;;;;7.80;2.90;;;14.30;99.90;;;;;;4966322;28;20487;-46
2022/06/02 10:15:08;;;;;;;6.53;3.10;;;14.40;99.90;;;;;;4966648;28;20449;-47
2022/06/02 10:17:51;;;;;;;4.73;3.00;;;14.50;99.90;;;;;;4966379;28;20472;-45
2022/06/02 10:20:47;;;;;;;8.17;2.93;;;14.70;99.90;;;;;;4963650;28;20433;-46
2022/06/02 10:23:38;;;;;;;5.03;3.03;;;15.00;99.90;;;;;;4962382;28;20766;-44
2022/06/02 10:26:35;;;;;;;5.60;2.90;;;15.40;99.90;;;;;;4965973;28;20778;-45
2022/06/02 10:29:26;;;;;;;7.13;2.50;;;15.70;99.90;;;;;;4967294;28;20783;-45
2022/06/02 10:32:29;;;;;;;5.40;2.93;;;16.00;99.90;;;;;;4963904;28;20461;-45
2022/06/02 10:35:34;;;;;;;5.37;3.50;;;16.40;99.90;;;;;;4965554;28;20444;-45
2022/06/02 10:38:05;;;;;;;4.07;2.90;;;16.80;99.90;;;;;;4965984;28;20955;-45
2022/06/02 10:40:56;;;;;;;7.80;3.37;;;16.70;99.90;;;;;;4965672;28;21270;-45
2022/06/02 10:44:00;;;;;;;7.87;3.40;;;16.30;99.90;;;;;;4964009;28;20519;-45
2022/06/02 10:46:32;;;;;;;8.60;3.27;;;15.80;99.90;;;;;;4961253;28;20432;-45
2022/06/02 10:49:33;;;;;;;6.97;3.43;;;15.30;99.90;;;;;;4967619;28;20440;-45
2022/06/02 10:52:26;;;;;;;5.60;3.30;;;14.90;99.90;;;;;;4964530;28;20836;-45
2022/06/02 10:55:11;;;;;;;8.77;3.67;;;14.40;99.90;;;;;;4961863;28;20423;-46
2022/06/02 10:57:58;;;;;;;4.83;3.43;;;14.30;99.90;;;;;;4969770;28;20471;-47
2022/06/02 11:01:07;;;;;;;8.67;3.70;;;14.20;99.90;;;;;;4959127;28;20471;-46
2022/06/02 11:04:02;;;;;;;4.40;3.50;;;14.30;99.90;;;;;;4964910;28;20507;-45
2022/06/02 11:07:04;;;;;;;9.07;3.70;;;14.50;99.90;;;;;;4970987;28;20424;-46
2022/06/02 11:09:48;;;;;;;8.17;3.90;;;14.90;99.90;;;;;;4967051;28;20425;-45
2022/06/02 11:12:29;;;;;;;8.93;4.20;;;15.50;99.90;;;;;;4959578;28;20431;-44
2022/06/02 11:15:28;;;;;;;8.30;3.13;;;15.90;99.90;;;;;;4963078;28;20934;-45
2022/06/02 11:18:26;;;;;;;7.43;3.20;;;16.30;99.90;;;;;;4970561;28;20471;-44
2022/06/02 11:21:00;;;;;;;7.30;3.43;;;16.20;99.90;;;;;;4968738;28;20451;-44
2022/06/02 11:23:45;;;;;;;6.27;3.30;;;15.90;99.90;;;;;;4971780;28;20435;-45
2022/06/02 11:26:48;;;;;;;5.83;3.40;;;15.80;99.90;;;;;;4966032;28;20487;-45
2022/06/02 11:29:29;;;;;;;8.57;3.20;;;15.80;99.90;;;;;;4964637;28;20799;-45
2022/06/02 11:32:31;;;;;;;10.80;3.70;;;15.80;99.90;;;;;;4968281;28;20896;-45
2022/06/02 11:35:34;;;;;;;5.90;3.33;;;15.70;99.90;;;;;;4957537;28;20437;-45
2022/06/02 11:38:37;;;;;;;7.67;2.70;;;15.70;99.90;;;;;;4970173;28;20502;-45
2022/06/02 11:41:34;;;;;;;3.40;3.10;;;15.40;99.90;;;;;;4970200;28;20434;-44
2022/06/02 11:44:06;;;;;;;8.40;3.13;;;15.20;99.90;;;;;;4967680;28;20517;-46
2022/06/02 11:47:07;;;;;;;7.33;3.27;;;15.00;99.90;;;;;;4957523;28;20441;-46
2022/06/02 11:49:51;;;;;;;3.27;2.70;;;14.80;99.90;;;;;;4967343;28;20432;-46
2022/06/02 11:52:36;;;;;;;3.83;2.97;;;14.60;99.90;;;;;;4960815;28;20445;-46
2022/06/02 11:55:23;;;;;;;9.67;3.50;;;14.50;99.90;;;;;;4962988;28;20423;-46
2022/06/02 11:57:53;;;;;;;6.53;3.30;;;14.70;99.90;;;;;;4965367;28;20467;-45
2022/06/02 12:00:49;;;;;;;6.80;3.27;;;15.10;99.90;;;;;;4968314;28;20440;-45
2022/06/02 12:03:47;;;;;;;3.10;2.80;;;15.60;99.90;;;;;;4966982;28;20433;-46
2022/06/02 12:06:30;;;;;;;5.20;3.33;;;16.50;99.90;;;;;;4965489;28;20580;-46
2022/06/02 12:09:08;;;;;;;8.90;3.00;;;17.30;99.90;;;;;;4964314;28;20443;-46
2022/06/02 12:12:00;;;;;;;7.23;3.37;;;17.70;99.90;;;;;;4971344;28;20494;-46
2022/06/02 12:15:06;;;;;;;5.80;2.70;;;18.00;99.90;;;;;;4964383;28;20507;-47
2022/06/02 12:17:34;;;;;;;7.37;2.77;;;18.10;99.90;;;;;;4965163;28;20536;-46
2022/06/02 12:20:45;;;;;;;7.03;2.73;;;17.60;99.90;;;;;;4966457;28;20436;-46
2022/06/02 12:23:29;;;;;;;4.20;2.10;;;17.20;99.90;;;;;;4959490;28;20416;-46
2022/06/02 12:26:22;;;;;;;5.10;2.20;;;17.20;99.90;;;;;;4968914;28;20429;-46
2022/06/02 12:29:01;;;;;;;4.50;2.53;;;17.30;99.90;;;;;;4967413;28;20499;-46
2022/06/02 12:31:56;;;;;;;5.53;2.67;;;17.20;99.90;;;;;;4966238;28;20514;-47
2022/06/02 12:35:16;;;;;;;4.40;2.60;;;17.40;99.90;;;;;;4965787;28;20433;-46
2022/06/02 12:38:18;;;;;;;6.47;2.53;;;18.20;99.90;;;;;;4956473;28;20484;-46
2022/06/02 12:41:11;;;;;;;9.47;2.23;;;18.80;99.90;;;;;;4960221;28;20425;-46
2022/06/02 12:44:14;;;;;;;5.70;2.20;;;19.00;99.90;;;;;;4965872;28;20424;-46
2022/06/02 12:47:11;;;;;;;12.33;2.80;;;19.40;99.90;;;;;;4960244;28;20435;-46
2022/06/02 12:49:40;;;;;;;5.33;2.27;;;18.80;99.90;;;;;;4961743;28;20488;-46
2022/06/02 12:52:41;;;;;;;5.00;2.43;;;19.30;99.90;;;;;;4962916;28;20915;-47
2022/06/02 12:55:28;;;;;;;6.20;2.40;;;19.90;99.90;;;;;;4939285;28;20436;-46
2022/06/02 12:58:10;;;;;;;5.03;2.40;;;19.90;99.90;;;;;;4965919;28;20579;-47
2022/06/02 13:00:53;;;;;;;4.80;2.30;;;19.10;99.90;;;;;;4960727;28;20492;-46
2022/06/02 13:04:13;;;;;;;6.87;2.40;;;18.20;99.90;;;;;;4956368;28;20764;-47
2022/06/02 13:07:28;;;;;;;4.87;2.50;;;17.80;99.90;;;;;;4960831;28;20672;-46
2022/06/02 13:10:20;;;;;;;6.40;2.50;;;18.30;99.90;;;;;;4959704;28;20509;-47
2022/06/02 13:13:13;;;;;;;5.93;2.30;;;19.60;99.90;;;;;;4962591;28;20456;-47
2022/06/02 13:15:57;;;;;;;2.70;1.90;;;21.00;99.90;;;;;;4954460;28;20723;-46
2022/06/02 13:18:53;;;;;;;8.33;2.10;;;22.20;99.90;;;;;;4960923;28;20786;-47
2022/06/02 13:21:37;;;;;;;5.83;2.10;;;22.50;99.90;;;;;;4962787;28;20460;-47
2022/06/02 13:24:02;;;;;;;5.80;2.20;;;22.90;99.90;;;;;;4961972;28;20422;-47
2022/06/02 13:27:03;;;;;;;5.80;2.30;;;23.00;99.90;;;;;;4963221;28;20433;-46
2022/06/02 13:29:54;;;;;;;4.33;2.00;;;22.10;99.90;;;;;;4956465;28;20173;-46
2022/06/02 13:32:50;;;;;;;3.57;2.00;;;21.00;99.90;;;;;;4958514;28;20417;-47
2022/06/02 13:35:37;;;;;;;4.83;2.20;;;21.40;99.90;;;;;;4960649;28;20436;-47
2022/06/02 13:38:21;;;;;;;4.20;1.90;;;21.80;99.90;;;;;;4967616;28;20826;-47
2022/06/02 13:41:24;;;;;;;4.97;1.83;;;22.50;99.90;;;;;;4965609;28;20432;-46
2022/06/02 13:44:07;;;;;;;2.80;1.80;;;22.60;99.90;;;;;;4966141;28;20777;-47
2022/06/02 13:46:48;;;;;;;5.90;2.03;;;22.60;99.90;;;;;;4965334;28;20519;-44
2022/06/02 13:49:39;;;;;;;3.30;1.80;;;21.90;99.90;;;;;;4971315;28;20532;-45
2022/06/02 13:52:39;;;;;;;3.63;2.47;;;21.60;99.90;;;;;;4968705;28;20481;-45
2022/06/02 13:58:14;;;;;;;9.87;2.40;;;21.90;99.90;;;;;;4972144;28;20475;-45
2022/06/02 14:00:40;;;;;;;3.10;2.20;;;22.30;99.90;;;;;;4961277;28;20425;-46
2022/06/02 14:03:23;;;;;;;5.80;2.47;;;22.70;99.90;;;;;;4967092;28;20441;-46
2022/06/02 14:06:09;;;;;;;2.80;1.80;;;22.80;99.90;;;;;;4973772;28;20188;-46
2022/06/02 14:09:11;;;;;;;6.13;2.27;;;22.20;99.90;;;;;;4969864;28;20467;-46
2022/06/02 14:12:11;;;;;;;2.43;1.80;;;21.20;99.90;;;;;;4969682;28;20435;-46
2022/06/02 14:15:10;;;;;;;5.00;2.00;;;21.40;99.90;;;;;;4971011;28;20471;-46
2022/06/02 14:18:01;;;;;;;7.63;1.80;;;21.70;99.90;;;;;;4970595;28;20486;-46
2022/06/02 14:20:38;;;;;;;4.53;1.93;;;22.30;99.90;;;;;;4970556;28;20444;-46
2022/06/02 14:23:13;;;;;;;4.70;1.70;;;21.70;99.90;;;;;;4972782;28;20443;-46
2022/06/02 14:25:45;;;;;;;7.77;1.90;;;21.80;99.90;;;;;;4975962;28;20696;-46
2022/06/02 14:28:52;;;;;;;4.17;1.57;;;22.10;99.90;;;;;;4967904;28;21297;-46
2022/06/02 14:31:24;;;;;;;3.37;1.77;;;22.00;99.90;;;;;;4961111;28;21517;-47
2022/06/02 14:34:13;;;;;;;4.53;1.80;;;21.80;99.90;;;;;;4965930;28;20846;-46
2022/06/02 14:36:55;;;;;;;5.40;1.80;;;22.00;99.90;;;;;;4970139;28;20440;-46
2022/06/02 14:39:32;;;;;;;2.70;1.90;;;22.00;99.90;;;;;;4963834;28;20471;-46
2022/06/02 14:43:03;;;;;;;5.70;1.63;;;21.90;99.90;;;;;;4964436;28;20439;-46
2022/06/02 14:45:55;;;;;;;6.50;1.90;;;21.80;99.90;;;;;;4969888;28;20797;-46